Flight Track Log - Related Links

Times and Time Zones

All times are in EDT time to prevent confusion due to time zone crossing. See the JZA8247 flight status page for this flight to view local times or setup timezone preferences in your user account.

Time Position Orientation Groundspeed Altitude Reporting Facility
EDT Latitude Longitude Course Direction KTS MPH feet Rate Location/Type
Thu 11:53:00 AM 49.3243 -118.2712 276° West  Level FlightAware Approximate
Thu 11:53:49 AM 49.3500 -118.1000 275° West 210 242 10,300  Level Vancouver Center
Thu 11:54:00 AM 49.3302 -118.3650 275° West  Level FlightAware Approximate
Thu 11:54:49 AM 49.3500 -118.2167 270° West 200 230 11,400  Level Vancouver Center
Thu 11:55:00 AM 49.3372 -118.4586 278° West  Level FlightAware Approximate
Thu 11:55:49 AM 49.3500 -118.2833 270° West 200 230 12,500  Level Vancouver Center
Thu 11:56:00 AM 49.3456 -118.5519 278° West  Level FlightAware Approximate
Thu 11:56:49 AM 49.3667 -118.3667 287° West 190 219 13,700  Level Vancouver Center
Thu 11:57:00 AM 49.3532 -118.6452 280° West  Level FlightAware Approximate
Thu 11:57:49 AM 49.3667 -118.4333 270° West 190 219 14,600  Level Vancouver Center
Thu 11:58:00 AM 49.3635 -118.7381 280° West  Level FlightAware Approximate
Thu 11:58:49 AM 49.3667 -118.5333 270° West 200 230 15,600  Level Vancouver Center
Thu 11:59:00 AM 49.3700 -118.8318 275° West  Level FlightAware Approximate
Thu 11:59:49 AM 49.3667 -118.6167 270° West 190 219 16,500  Level Vancouver Center
Thu 12:00:49 PM 49.3667 -118.7000 270° West 200 230 17,200 750 Climbing Vancouver Center
Thu 12:01:49 PM 49.3833 -118.7667 291° West 200 230 18,000 800 Climbing Vancouver Center
Thu 12:02:49 PM 49.3833 -118.8667 270° West 200 230 18,800 700 Climbing Vancouver Center
Thu 12:03:49 PM 49.3833 -118.9500 270° West 200 230 19,400 600 Climbing Vancouver Center
Thu 12:04:49 PM 49.3833 -119.0500 270° West 210 242 20,000 600 Climbing Vancouver Center
Thu 12:05:49 PM 49.4000 -119.1333 287° West 210 242 20,600 600 Climbing Vancouver Center
Thu 12:06:49 PM 49.4000 -119.2333 270° West 220 253 21,200 550 Climbing Vancouver Center
Thu 12:07:49 PM 49.4000 -119.3167 270° West 210 242 21,700 400 Climbing Vancouver Center
Thu 12:08:49 PM 49.4000 -119.4167 270° West 220 253 22,000 150 Climbing Vancouver Center
Thu 12:09:49 PM 49.4167 -119.5167 284° West 230 265 22,000  Level Vancouver Center
Thu 12:10:49 PM 49.4333 -119.6167 284° West 240 276 22,000  Level Vancouver Center
Thu 12:11:49 PM 49.4333 -119.7167 270° West 250 288 22,000  Level Vancouver Center
Thu 12:12:49 PM 49.4333 -119.8167 270° West 250 288 22,000  Level Vancouver Center
Thu 12:13:49 PM 49.4333 -119.9500 270° West 250 288 22,000  Level Vancouver Center
Thu 12:14:49 PM 49.4500 -120.0500 284° West 250 288 22,000  Level Vancouver Center
Thu 12:15:49 PM 49.4500 -120.1500 270° West 250 288 22,000  Level Vancouver Center
Thu 12:16:49 PM 49.4500 -120.2500 270° West 250 288 22,000  Level Vancouver Center
Thu 12:17:49 PM 49.4500 -120.3500 270° West 250 288 22,000  Level Vancouver Center
Thu 12:18:49 PM 49.4500 -120.4667 270° West 260 299 22,000  Level Vancouver Center
Thu 12:19:49 PM 49.4667 -120.5833 282° West 250 288 22,000  Level Vancouver Center
Thu 12:20:49 PM 49.4667 -120.6833 270° West 250 288 22,000  Level Vancouver Center
Thu 12:21:49 PM 49.4500 -120.8000 258° West 250 288 22,000  Level Vancouver Center
Thu 12:22:49 PM 49.4500 -120.9000 270° West 250 288 22,000  Level Vancouver Center
Thu 12:23:49 PM 49.4333 -121.0000 256° West 250 288 22,000  Level Vancouver Center
Thu 12:24:49 PM 49.4333 -121.1333 270° West 250 288 22,000  Level Vancouver Center
Thu 12:25:49 PM 49.4500 -121.2333 284° West 250 288 22,000 -550 Level Vancouver Center
Thu 12:26:49 PM 49.4333 -121.3333 256° West 260 299 20,900 -1,200 Descending Vancouver Center
Thu 12:27:49 PM 49.4333 -121.4667 270° West 290 334 19,600 -1,350 Descending Vancouver Center
Thu 12:28:49 PM 49.4167 -121.6000 259° West 290 334 18,200 -1,350 Descending Vancouver Center
Thu 12:29:49 PM 49.4167 -121.7167 270° West 280 322 16,900 -1,150 Descending Vancouver Center
Thu 12:30:49 PM 49.4000 -121.8167 256° West 280 322 15,900 -750 Descending Vancouver Center
Thu 12:31:49 PM 49.4000 -121.9333 270° West 270 311 15,400 -500 Descending Vancouver Center
Thu 12:32:49 PM 49.4000 -122.0500 270° West 260 299 14,900 -550 Descending Vancouver Center
Thu 12:33:49 PM 49.4000 -122.1500 270° West 270 311 14,300 -550 Descending Vancouver Center
Thu 12:34:49 PM 49.4000 -122.2833 270° West 270 311 13,800 -550 Descending Vancouver Center
Thu 12:35:49 PM 49.3667 -122.3833 243° Southwest 270 311 13,200 -550 Descending Vancouver Center
Thu 12:36:49 PM 49.3333 -122.5000 246° West 260 299 12,700 -550 Descending Vancouver Center
Thu 12:37:49 PM 49.3000 -122.5667 233° Southwest 260 299 12,100 -600 Descending Vancouver Center
Thu 12:38:49 PM 49.2500 -122.6667 233° Southwest 260 299 11,500 -550 Descending Vancouver Center
Thu 12:39:49 PM 49.2333 -122.7833 258° West 250 288 11,000 -500 Descending Vancouver Center
Thu 12:40:49 PM 49.2167 -122.8833 256° West 240 276 10,500 -500 Descending Vancouver Center
Thu 12:41:49 PM 49.2333 -122.9833 284° West 240 276 10,000 -550 Descending Vancouver Center
Thu 12:42:49 PM 49.2500 -123.0833 284° West 240 276 9,400 -950 Descending Vancouver Center
Thu 12:43:49 PM 49.2500 -123.1833 270° West 240 276 8,100 -1,450 Descending Vancouver Center
Thu 12:44:49 PM 49.2667 -123.2833 284° West 240 276 6,500 -1,700 Descending Vancouver Center
Thu 12:45:49 PM 49.2833 -123.3667 287° West 240 276 4,700 -1,300 Descending Vancouver Center
Thu 12:46:49 PM 49.2833 -123.4667 270° West 240 276 3,900 -850 Descending Vancouver Center
Thu 12:47:49 PM 49.2667 -123.5500 253° West 210 242 3,000 -950 Descending Vancouver Center
Thu 12:48:49 PM 49.2333 -123.5000 136° Southeast 180 207 2,000 -500 Descending Vancouver Center
Thu 12:49:49 PM 49.2167 -123.4333 111° Southeast 170 196 2,000  Level Vancouver Center
Thu 12:50:49 PM 49.2000 -123.3667 111° Southeast 170 196 2,000 -300 Level Vancouver Center
Thu 12:51:49 PM 49.2000 -123.2833 90° East 160 184 1,400 -650 Descending Vancouver Center
Thu 12:52:49 PM 49.1833 -123.2333 117° Southeast 140 161 700 -700 Descending Vancouver Center

Login

Don't have an account? Register now (free) for customized features, flight alerts, and more!